Time;durP1;ratioP1;P1;durP2;ratioP2;P2;SDS_P1;SDS_P2;PMS_P1;PMS_P2;Temp;Humidity;BMP_temperature;BMP_pressure;BME280_temperature;BME280_humidity;BME280_pressure;Samples;Min_cycle;Max_cycle;Signal;HPM_P1;HPM_P2
2022/05/18 00:01:35;;;;;;;10.98;6.20;;;;;;;;;;5009693;28;20042;-64
2022/05/18 00:04:03;;;;;;;8.93;5.20;;;;;;;;;;5016942;28;20393;-64
2022/05/18 00:06:29;;;;;;;9.85;5.15;;;;;;;;;;5008405;28;20042;-64
2022/05/18 00:08:55;;;;;;;13.48;5.88;;;;;;;;;;4992520;28;20053;-64
2022/05/18 00:11:22;;;;;;;10.07;5.43;;;;;;;;;;5016049;28;20136;-64
2022/05/18 00:13:49;;;;;;;10.02;5.93;;;;;;;;;;5016331;28;20418;-64
2022/05/18 00:16:16;;;;;;;12.85;5.85;;;;;;;;;;5014878;28;20484;-64
2022/05/18 00:18:43;;;;;;;11.93;5.18;;;;;;;;;;5014803;28;20515;-64
2022/05/18 00:21:09;;;;;;;12.07;5.57;;;;;;;;;;5020219;28;20046;-64
2022/05/18 00:23:35;;;;;;;9.63;5.25;;;;;;;;;;5015895;28;20049;-64
2022/05/18 00:26:01;;;;;;;11.63;4.88;;;;;;;;;;5015087;28;20048;-64
2022/05/18 00:28:27;;;;;;;9.23;4.82;;;;;;;;;;5012838;28;20049;-64
2022/05/18 00:30:54;;;;;;;12.48;5.50;;;;;;;;;;5002292;28;20379;-64
2022/05/18 00:33:20;;;;;;;11.18;5.70;;;;;;;;;;5015620;28;20048;-64
2022/05/18 00:35:46;;;;;;;9.98;5.40;;;;;;;;;;5014716;28;20060;-64
2022/05/18 00:38:13;;;;;;;9.07;5.88;;;;;;;;;;5013656;28;20368;-64
2022/05/18 00:40:40;;;;;;;9.75;5.25;;;;;;;;;;5016498;28;20532;-64
2022/05/18 00:43:14;;;;;;;9.43;5.03;;;;;;;;;;5016644;28;20048;-64
2022/05/18 00:45:41;;;;;;;8.57;5.22;;;;;;;;;;5014012;28;20092;-64
2022/05/18 00:48:07;;;;;;;12.50;5.78;;;;;;;;;;5013271;28;20125;-64
2022/05/18 00:50:35;;;;;;;10.20;5.60;;;;;;;;;;5014854;28;20096;-64
2022/05/18 00:53:01;;;;;;;12.95;5.03;;;;;;;;;;5017479;28;20108;-64
2022/05/18 00:55:28;;;;;;;10.13;4.95;;;;;;;;;;5015081;28;20050;-64
2022/05/18 00:58:01;;;;;;;9.07;4.55;;;;;;;;;;5002864;28;20136;-64
2022/05/18 01:00:27;;;;;;;11.75;5.00;;;;;;;;;;5015982;28;20088;-64
2022/05/18 01:02:56;;;;;;;9.85;5.00;;;;;;;;;;5015520;28;20076;-64
2022/05/18 01:05:25;;;;;;;12.15;5.30;;;;;;;;;;5016448;28;20041;-64
2022/05/18 01:07:53;;;;;;;11.18;4.97;;;;;;;;;;5013949;28;20042;-63
2022/05/18 01:10:20;;;;;;;10.38;5.10;;;;;;;;;;5016786;28;20727;-64
2022/05/18 01:12:47;;;;;;;12.68;6.68;;;;;;;;;;5016267;28;20125;-64
2022/05/18 01:15:15;;;;;;;11.00;5.38;;;;;;;;;;5014209;28;20478;-63
2022/05/18 01:17:43;;;;;;;9.68;5.60;;;;;;;;;;5012761;28;20580;-64
2022/05/18 01:20:10;;;;;;;10.07;5.88;;;;;;;;;;5011837;28;20195;-64
2022/05/18 01:22:41;;;;;;;10.50;5.82;;;;;;;;;;4996796;28;20088;-64
2022/05/18 01:25:19;;;;;;;11.18;5.65;;;;;;;;;;5013115;28;20097;-64
2022/05/18 01:27:45;;;;;;;9.45;4.95;;;;;;;;;;5012567;28;22366;-64
2022/05/18 01:30:13;;;;;;;11.10;5.75;;;;;;;;;;5013226;28;20045;-64
2022/05/18 01:32:41;;;;;;;9.38;6.10;;;;;;;;;;5011791;28;20513;-64
2022/05/18 01:35:08;;;;;;;13.32;6.20;;;;;;;;;;5014088;28;20050;-64
2022/05/18 01:37:34;;;;;;;10.93;6.05;;;;;;;;;;5013867;28;20070;-64
2022/05/18 01:40:04;;;;;;;8.90;6.03;;;;;;;;;;5010807;28;20088;-64
2022/05/18 01:42:34;;;;;;;11.10;6.03;;;;;;;;;;5012058;28;20196;-64
2022/05/18 01:45:00;;;;;;;9.55;6.20;;;;;;;;;;5011645;28;20046;-64
2022/05/18 01:47:31;;;;;;;11.43;6.95;;;;;;;;;;5010595;28;20129;-64
2022/05/18 01:49:58;;;;;;;10.00;6.68;;;;;;;;;;5010820;28;20121;-64
2022/05/18 01:52:24;;;;;;;13.68;7.15;;;;;;;;;;5013425;28;20440;-64
2022/05/18 01:54:50;;;;;;;9.95;6.32;;;;;;;;;;5012562;28;20500;-64
2022/05/18 01:57:16;;;;;;;12.80;7.35;;;;;;;;;;5011135;28;20501;-64
2022/05/18 01:59:42;;;;;;;10.85;6.55;;;;;;;;;;5016177;28;20050;-64
2022/05/18 02:02:10;;;;;;;15.45;6.53;;;;;;;;;;5011636;28;20464;-64
2022/05/18 02:04:37;;;;;;;11.52;6.60;;;;;;;;;;5017318;28;20080;-64
2022/05/18 02:07:04;;;;;;;14.00;7.07;;;;;;;;;;5015802;28;20038;-64
2022/05/18 02:09:30;;;;;;;12.52;6.80;;;;;;;;;;5013333;28;20045;-64
2022/05/18 02:11:56;;;;;;;13.30;6.45;;;;;;;;;;5013401;28;20046;-64
2022/05/18 02:14:22;;;;;;;10.48;6.80;;;;;;;;;;5013793;28;20189;-64
2022/05/18 02:16:49;;;;;;;14.05;6.47;;;;;;;;;;5012357;28;20152;-64
2022/05/18 02:19:16;;;;;;;9.18;6.18;;;;;;;;;;5012195;28;20045;-64
2022/05/18 02:21:42;;;;;;;13.07;7.07;;;;;;;;;;5011539;28;20125;-64
2022/05/18 02:24:08;;;;;;;11.98;7.00;;;;;;;;;;5013039;28;20148;-63
2022/05/18 02:26:35;;;;;;;8.90;6.43;;;;;;;;;;5011757;28;20040;-64
2022/05/18 02:29:02;;;;;;;11.95;7.05;;;;;;;;;;5010336;28;20074;-64
2022/05/18 02:31:28;;;;;;;14.23;7.35;;;;;;;;;;5012070;28;20116;-64
2022/05/18 02:33:54;;;;;;;13.07;7.47;;;;;;;;;;5011776;28;20145;-64
2022/05/18 02:36:20;;;;;;;12.43;7.97;;;;;;;;;;5010839;28;20057;-63
2022/05/18 02:38:47;;;;;;;13.80;7.25;;;;;;;;;;4998850;28;20065;-64
2022/05/18 02:41:13;;;;;;;14.18;8.07;;;;;;;;;;5012309;28;20034;-64
2022/05/18 02:43:40;;;;;;;14.73;7.65;;;;;;;;;;5015320;28;20049;-64
2022/05/18 02:46:09;;;;;;;9.60;7.15;;;;;;;;;;5015587;28;20045;-64
2022/05/18 02:48:35;;;;;;;11.35;7.55;;;;;;;;;;5016052;28;20046;-64
2022/05/18 02:51:01;;;;;;;13.65;8.68;;;;;;;;;;5011220;28;20033;-64
2022/05/18 02:53:28;;;;;;;11.77;7.70;;;;;;;;;;5009986;28;21227;-64
2022/05/18 02:56:06;;;;;;;15.52;8.30;;;;;;;;;;5012884;28;20501;-64
2022/05/18 02:58:33;;;;;;;13.32;8.50;;;;;;;;;;5012613;28;20041;-64
2022/05/18 03:01:00;;;;;;;12.43;7.63;;;;;;;;;;5010354;28;20045;-64
2022/05/18 03:03:27;;;;;;;16.30;9.10;;;;;;;;;;5014687;28;20067;-64
2022/05/18 03:05:54;;;;;;;12.90;8.02;;;;;;;;;;5015372;28;20052;-64
2022/05/18 03:08:20;;;;;;;13.93;8.00;;;;;;;;;;5000303;28;20062;-64
2022/05/18 03:10:46;;;;;;;12.77;9.45;;;;;;;;;;5014256;28;20379;-64
2022/05/18 03:13:13;;;;;;;14.02;9.18;;;;;;;;;;5012853;28;20041;-64
2022/05/18 03:15:39;;;;;;;13.82;9.07;;;;;;;;;;5012630;28;20383;-64
2022/05/18 03:18:05;;;;;;;13.50;8.82;;;;;;;;;;5011287;28;20050;-64
2022/05/18 03:26:02;;;;;;;13.23;8.68;;;;;;;;;;5011575;28;20037;-64
2022/05/18 03:28:29;;;;;;;11.13;8.32;;;;;;;;;;5010995;28;20037;-64
2022/05/18 03:30:55;;;;;;;15.73;9.70;;;;;;;;;;4994867;28;20046;-64
2022/05/18 03:33:22;;;;;;;16.60;9.63;;;;;;;;;;5011192;28;20125;-64
2022/05/18 03:35:49;;;;;;;19.45;9.63;;;;;;;;;;5009203;28;20053;-64
2022/05/18 03:38:15;;;;;;;15.55;9.15;;;;;;;;;;5009623;28;20046;-64
2022/05/18 03:40:42;;;;;;;14.27;9.18;;;;;;;;;;5003905;28;20104;-64
2022/05/18 03:43:08;;;;;;;14.27;9.23;;;;;;;;;;5011462;28;20045;-63
2022/05/18 03:45:35;;;;;;;15.77;9.90;;;;;;;;;;5012066;28;20180;-64
2022/05/18 03:48:01;;;;;;;14.07;9.30;;;;;;;;;;5010028;28;20037;-63
2022/05/18 03:50:28;;;;;;;14.60;9.98;;;;;;;;;;5012328;28;20046;-64
2022/05/18 03:52:56;;;;;;;12.55;9.88;;;;;;;;;;5010455;28;20540;-64
2022/05/18 03:55:22;;;;;;;15.02;9.80;;;;;;;;;;5010841;28;20049;-63
2022/05/18 03:57:48;;;;;;;14.40;10.00;;;;;;;;;;5012023;28;20053;-64
2022/05/18 04:00:15;;;;;;;13.30;10.23;;;;;;;;;;5016092;28;20107;-64
2022/05/18 04:02:42;;;;;;;13.80;9.27;;;;;;;;;;5012127;28;20053;-64
2022/05/18 04:05:09;;;;;;;14.50;9.95;;;;;;;;;;5014213;28;20428;-64
2022/05/18 04:07:36;;;;;;;15.90;10.50;;;;;;;;;;5012626;28;20041;-64
2022/05/18 04:10:02;;;;;;;13.27;9.77;;;;;;;;;;5010787;28;20554;-63
2022/05/18 04:12:28;;;;;;;14.90;9.27;;;;;;;;;;5014954;28;20046;-64
2022/05/18 04:14:55;;;;;;;14.85;9.45;;;;;;;;;;5013794;28;20052;-64
2022/05/18 04:17:23;;;;;;;12.07;9.57;;;;;;;;;;5010858;28;20045;-64
2022/05/18 04:19:49;;;;;;;12.63;9.55;;;;;;;;;;5010227;28;21231;-64
2022/05/18 04:22:15;;;;;;;15.50;9.63;;;;;;;;;;5013633;28;20399;-64
2022/05/18 04:24:41;;;;;;;16.40;10.40;;;;;;;;;;5012342;28;20068;-64
2022/05/18 04:27:08;;;;;;;15.30;10.35;;;;;;;;;;5010400;28;20038;-64
2022/05/18 04:29:34;;;;;;;13.50;9.85;;;;;;;;;;5010287;28;20034;-64
2022/05/18 04:32:00;;;;;;;14.73;9.90;;;;;;;;;;5010838;28;20133;-64
2022/05/18 04:34:27;;;;;;;13.68;10.00;;;;;;;;;;5009482;28;20057;-64
2022/05/18 04:36:53;;;;;;;17.35;9.90;;;;;;;;;;5008477;28;20053;-64
2022/05/18 04:39:19;;;;;;;17.77;10.13;;;;;;;;;;5010966;28;21007;-64
2022/05/18 04:41:45;;;;;;;15.13;10.50;;;;;;;;;;5009912;28;20037;-64
2022/05/18 04:44:13;;;;;;;21.48;11.05;;;;;;;;;;5010011;28;20470;-64
2022/05/18 04:46:40;;;;;;;18.63;10.73;;;;;;;;;;5011478;28;20080;-63
2022/05/18 04:49:06;;;;;;;13.75;10.27;;;;;;;;;;5009663;28;20067;-64
2022/05/18 04:51:33;;;;;;;18.13;10.68;;;;;;;;;;5010742;28;20120;-63
2022/05/18 04:54:00;;;;;;;16.77;10.85;;;;;;;;;;5008335;28;20131;-63
2022/05/18 04:56:26;;;;;;;16.70;10.77;;;;;;;;;;5002780;28;20045;-62
2022/05/18 04:58:53;;;;;;;14.38;10.15;;;;;;;;;;5013296;28;20482;-63
2022/05/18 05:01:19;;;;;;;13.48;10.45;;;;;;;;;;5013281;28;20089;-64
2022/05/18 05:03:45;;;;;;;16.48;11.57;;;;;;;;;;5013876;28;20033;-63
2022/05/18 05:06:12;;;;;;;15.18;10.65;;;;;;;;;;5005560;28;20483;-63
2022/05/18 05:08:39;;;;;;;18.50;11.20;;;;;;;;;;5013247;28;20058;-63
2022/05/18 05:11:06;;;;;;;17.13;11.95;;;;;;;;;;5010931;28;20037;-63
2022/05/18 05:13:33;;;;;;;17.88;12.00;;;;;;;;;;5014750;28;20061;-64
2022/05/18 05:16:01;;;;;;;19.13;11.77;;;;;;;;;;5019623;28;20044;-63
2022/05/18 05:18:27;;;;;;;16.95;12.70;;;;;;;;;;5010387;28;20042;-63
2022/05/18 05:20:53;;;;;;;19.40;13.25;;;;;;;;;;5014950;28;20042;-64
2022/05/18 05:23:22;;;;;;;17.65;12.27;;;;;;;;;;5013415;28;20045;-64
2022/05/18 05:25:48;;;;;;;20.70;12.57;;;;;;;;;;5011488;28;20307;-63
2022/05/18 05:28:14;;;;;;;17.40;12.75;;;;;;;;;;5013821;28;20041;-63
2022/05/18 05:30:41;;;;;;;17.10;12.43;;;;;;;;;;5012801;28;20045;-64
2022/05/18 05:33:07;;;;;;;19.55;13.52;;;;;;;;;;5011264;28;20465;-64
2022/05/18 05:35:33;;;;;;;21.77;14.15;;;;;;;;;;5013909;28;20053;-64
2022/05/18 05:37:59;;;;;;;18.00;12.45;;;;;;;;;;5014925;28;20046;-64
2022/05/18 05:40:26;;;;;;;17.77;13.23;;;;;;;;;;5010548;28;20156;-64
2022/05/18 05:42:52;;;;;;;19.15;13.60;;;;;;;;;;5013254;28;20033;-64
2022/05/18 05:45:18;;;;;;;19.83;14.25;;;;;;;;;;5011095;28;20122;-64
2022/05/18 05:47:44;;;;;;;18.00;13.57;;;;;;;;;;5015186;28;20044;-64
2022/05/18 05:50:10;;;;;;;19.15;13.38;;;;;;;;;;5013515;28;20056;-64
2022/05/18 05:52:37;;;;;;;24.63;13.73;;;;;;;;;;5012913;28;20057;-64
2022/05/18 05:55:03;;;;;;;18.70;14.35;;;;;;;;;;5015926;28;20049;-64
2022/05/18 05:57:29;;;;;;;17.73;13.45;;;;;;;;;;5010882;28;20042;-63
2022/05/18 05:59:56;;;;;;;23.20;13.85;;;;;;;;;;5000176;28;20045;-64
2022/05/18 06:02:22;;;;;;;16.42;13.18;;;;;;;;;;5006731;28;20055;-64
2022/05/18 06:04:48;;;;;;;19.50;15.18;;;;;;;;;;5011558;28;20134;-64
2022/05/18 06:07:15;;;;;;;21.75;14.43;;;;;;;;;;5012302;28;20124;-63
2022/05/18 06:09:41;;;;;;;19.25;13.82;;;;;;;;;;5012062;28;21107;-64
2022/05/18 06:12:08;;;;;;;19.58;14.02;;;;;;;;;;5014555;28;20164;-63
2022/05/18 06:14:34;;;;;;;24.13;15.65;;;;;;;;;;5011048;28;20073;-64
2022/05/18 06:17:00;;;;;;;22.40;15.10;;;;;;;;;;5016887;28;20042;-64
2022/05/18 06:19:29;;;;;;;25.23;15.20;;;;;;;;;;5012741;28;20050;-64
2022/05/18 06:21:56;;;;;;;21.92;14.90;;;;;;;;;;5010160;28;20048;-64
2022/05/18 06:24:22;;;;;;;18.90;14.82;;;;;;;;;;4996554;28;20049;-64
2022/05/18 06:26:48;;;;;;;21.95;15.30;;;;;;;;;;5010821;28;20049;-63
2022/05/18 06:29:14;;;;;;;24.27;15.38;;;;;;;;;;5013143;28;20042;-63
2022/05/18 06:31:40;;;;;;;21.52;14.95;;;;;;;;;;5016235;28;20500;-63
2022/05/18 06:34:07;;;;;;;20.95;15.43;;;;;;;;;;5018786;28;20053;-64
2022/05/18 06:36:34;;;;;;;24.88;15.13;;;;;;;;;;5015279;28;20041;-64
2022/05/18 06:39:00;;;;;;;22.77;15.07;;;;;;;;;;5003856;28;20076;-64
2022/05/18 06:41:27;;;;;;;34.67;16.20;;;;;;;;;;5012949;28;20536;-64
2022/05/18 06:43:55;;;;;;;20.80;15.25;;;;;;;;;;4997287;28;20069;-64
2022/05/18 06:46:22;;;;;;;21.83;15.35;;;;;;;;;;5012929;28;20981;-64
2022/05/18 06:48:48;;;;;;;23.58;16.63;;;;;;;;;;5013815;28;20049;-64
2022/05/18 06:51:17;;;;;;;25.35;17.15;;;;;;;;;;5011298;28;20061;-64
2022/05/18 06:53:43;;;;;;;23.25;16.90;;;;;;;;;;5012058;28;20053;-63
2022/05/18 06:56:10;;;;;;;21.50;16.55;;;;;;;;;;5012235;28;20042;-64
2022/05/18 06:58:36;;;;;;;20.85;16.35;;;;;;;;;;5011515;28;20068;-64
2022/05/18 07:01:03;;;;;;;23.55;16.08;;;;;;;;;;5009955;28;20041;-64
2022/05/18 07:03:29;;;;;;;21.25;16.55;;;;;;;;;;5003053;28;20053;-63
2022/05/18 07:05:55;;;;;;;19.75;16.52;;;;;;;;;;5010082;28;20049;-63
2022/05/18 07:08:21;;;;;;;22.00;16.38;;;;;;;;;;5010886;28;20707;-64
2022/05/18 07:10:48;;;;;;;27.33;17.48;;;;;;;;;;5017340;28;20862;-63
2022/05/18 07:13:17;;;;;;;22.38;15.63;;;;;;;;;;5015299;28;20092;-63
2022/05/18 07:15:44;;;;;;;19.52;15.73;;;;;;;;;;5007496;28;20048;-63
2022/05/18 07:18:10;;;;;;;20.52;13.57;;;;;;;;;;5011782;28;20053;-63
2022/05/18 07:20:36;;;;;;;22.30;15.68;;;;;;;;;;5014712;28;20414;-63
2022/05/18 07:23:02;;;;;;;20.13;13.85;;;;;;;;;;5012266;28;20419;-63
2022/05/18 07:25:29;;;;;;;22.20;14.48;;;;;;;;;;4997729;28;20050;-64
2022/05/18 07:27:55;;;;;;;20.63;13.80;;;;;;;;;;4997144;28;20052;-64
2022/05/18 07:30:21;;;;;;;23.02;14.18;;;;;;;;;;5013670;28;20071;-63
2022/05/18 07:32:47;;;;;;;19.95;14.10;;;;;;;;;;5008289;28;20049;-64
2022/05/18 07:35:13;;;;;;;18.00;13.50;;;;;;;;;;5009565;28;20061;-62
2022/05/18 07:37:40;;;;;;;22.35;13.35;;;;;;;;;;5010216;28;20053;-63
2022/05/18 07:40:07;;;;;;;16.38;12.63;;;;;;;;;;5008598;28;20042;-64
2022/05/18 07:42:33;;;;;;;17.67;12.50;;;;;;;;;;5010045;28;20037;-64
2022/05/18 07:44:59;;;;;;;23.25;13.15;;;;;;;;;;5011191;28;20073;-64
2022/05/18 07:47:30;;;;;;;21.17;13.23;;;;;;;;;;5012596;28;20030;-64
2022/05/18 07:49:56;;;;;;;18.73;12.45;;;;;;;;;;5012405;28;20052;-64
2022/05/18 07:52:22;;;;;;;21.67;12.35;;;;;;;;;;5011063;28;20060;-63
2022/05/18 07:54:48;;;;;;;19.13;12.43;;;;;;;;;;4996234;28;20472;-63
2022/05/18 07:57:15;;;;;;;21.98;13.20;;;;;;;;;;5001384;28;20045;-63
2022/05/18 07:59:41;;;;;;;19.65;12.52;;;;;;;;;;5020409;28;20136;-64
2022/05/18 08:02:07;;;;;;;22.30;13.90;;;;;;;;;;5011645;28;20033;-64
2022/05/18 08:04:33;;;;;;;21.67;13.77;;;;;;;;;;5011388;28;20057;-63
2022/05/18 08:07:00;;;;;;;24.85;13.15;;;;;;;;;;5013800;28;20041;-64
2022/05/18 08:09:26;;;;;;;19.08;14.75;;;;;;;;;;5010394;28;20081;-64
2022/05/18 08:17:23;;;;;;;21.33;14.25;;;;;;;;;;5005255;28;20050;-64
2022/05/18 08:19:49;;;;;;;27.90;15.90;;;;;;;;;;5011441;28;20053;-63
2022/05/18 08:22:17;;;;;;;22.58;15.88;;;;;;;;;;5009919;28;20042;-63
2022/05/18 08:24:43;;;;;;;24.08;14.80;;;;;;;;;;5014595;28;20061;-63
2022/05/18 08:27:14;;;;;;;24.98;14.52;;;;;;;;;;5013639;28;20049;-64
2022/05/18 08:29:41;;;;;;;22.63;15.00;;;;;;;;;;5010083;28;20457;-64
2022/05/18 08:32:07;;;;;;;26.67;15.65;;;;;;;;;;4995838;28;20088;-63
2022/05/18 08:34:33;;;;;;;20.67;15.70;;;;;;;;;;5007372;28;20356;-63
2022/05/18 08:37:00;;;;;;;22.45;15.63;;;;;;;;;;5016921;28;20038;-64
2022/05/18 08:39:27;;;;;;;26.13;15.93;;;;;;;;;;5018733;28;20434;-63
2022/05/18 08:41:53;;;;;;;23.80;15.50;;;;;;;;;;4997646;28;20050;-64
2022/05/18 08:44:25;;;;;;;22.92;16.63;;;;;;;;;;5015753;28;20030;-64
2022/05/18 08:47:05;;;;;;;19.60;15.85;;;;;;;;;;5032781;28;20513;-64
2022/05/18 08:49:32;;;;;;;23.05;17.08;;;;;;;;;;5016784;28;20481;-64
2022/05/18 08:52:11;;;;;;;23.17;16.08;;;;;;;;;;5028578;28;20195;-64
2022/05/18 08:54:41;;;;;;;21.73;16.25;;;;;;;;;;4997837;28;20042;-64
2022/05/18 08:57:14;;;;;;;22.25;16.17;;;;;;;;;;5029539;28;20126;-64
2022/05/18 08:59:41;;;;;;;24.30;16.33;;;;;;;;;;5033387;28;20045;-64
2022/05/18 09:02:12;;;;;;;21.05;15.18;;;;;;;;;;5044070;28;20159;-64
2022/05/18 09:04:44;;;;;;;23.23;15.57;;;;;;;;;;5054469;28;20041;-64
2022/05/18 09:07:12;;;;;;;23.83;15.60;;;;;;;;;;5026325;28;20367;-64
2022/05/18 09:12:29;;;;;;;21.88;13.63;;;;;;;;;;5035159;28;20064;-64
2022/05/18 09:14:55;;;;;;;16.77;11.00;;;;;;;;;;5034981;28;20106;-64
2022/05/18 09:17:33;;;;;;;17.65;10.75;;;;;;;;;;5005607;28;20486;-64
2022/05/18 09:20:00;;;;;;;18.55;11.98;;;;;;;;;;5050391;28;20049;-64
2022/05/18 09:22:33;;;;;;;23.27;12.80;;;;;;;;;;5052513;28;20111;-63
2022/05/18 09:24:59;;;;;;;21.77;13.55;;;;;;;;;;5033995;28;20131;-63
2022/05/18 09:27:37;;;;;;;16.90;13.02;;;;;;;;;;5020426;28;20045;-64
2022/05/18 09:30:04;;;;;;;21.25;12.35;;;;;;;;;;5014919;28;20037;-64
2022/05/18 09:32:43;;;;;;;17.30;14.05;;;;;;;;;;4996689;28;20077;-65
2022/05/18 09:35:21;;;;;;;17.02;13.65;;;;;;;;;;5035004;28;20107;-63
2022/05/18 09:37:48;;;;;;;22.95;16.35;;;;;;;;;;5053663;28;20500;-64
2022/05/18 09:40:20;;;;;;;27.63;17.05;;;;;;;;;;5045691;28;20233;-64
2022/05/18 09:42:51;;;;;;;24.70;16.42;;;;;;;;;;4997366;28;20048;-64
2022/05/18 09:45:19;;;;;;;21.88;13.38;;;;;;;;;;5033180;28;20068;-64
2022/05/18 09:47:50;;;;;;;19.15;13.05;;;;;;;;;;5028038;28;20038;-64
2022/05/18 09:50:16;;;;;;;20.67;13.93;;;;;;;;;;5014731;28;20041;-64
2022/05/18 09:52:44;;;;;;;17.85;12.80;;;;;;;;;;4996165;28;20052;-64
2022/05/18 09:55:12;;;;;;;19.98;14.27;;;;;;;;;;4997085;28;20107;-64
2022/05/18 09:57:38;;;;;;;18.92;13.30;;;;;;;;;;4996634;28;20056;-64
2022/05/18 10:00:07;;;;;;;22.95;13.38;;;;;;;;;;5002853;28;20049;-64
2022/05/18 10:08:12;;;;;;;16.98;11.75;;;;;;;;;;5034080;28;20049;-64
2022/05/18 10:10:38;;;;;;;22.20;10.85;;;;;;;;;;5034149;28;20046;-64
2022/05/18 10:13:13;;;;;;;17.33;11.98;;;;;;;;;;5033151;28;20037;-64
2022/05/18 10:15:43;;;;;;;25.77;13.00;;;;;;;;;;5028407;28;20094;-64
2022/05/18 10:18:11;;;;;;;19.58;13.63;;;;;;;;;;5028138;28;20034;-64
2022/05/18 10:20:37;;;;;;;22.75;14.77;;;;;;;;;;5025032;28;20056;-64
2022/05/18 10:23:04;;;;;;;19.10;12.38;;;;;;;;;;5033273;28;20038;-64
2022/05/18 10:25:41;;;;;;;20.20;13.70;;;;;;;;;;5014074;28;20065;-64
2022/05/18 10:28:22;;;;;;;16.45;12.75;;;;;;;;;;5012975;28;20486;-64
2022/05/18 10:30:56;;;;;;;20.67;11.20;;;;;;;;;;5013820;28;20041;-64
2022/05/18 10:33:23;;;;;;;15.35;9.93;;;;;;;;;;4995951;28;20193;-64
2022/05/18 10:35:51;;;;;;;14.80;9.43;;;;;;;;;;5024759;28;20050;-64
2022/05/18 10:38:20;;;;;;;16.00;9.75;;;;;;;;;;5014677;28;20124;-64
2022/05/18 10:40:47;;;;;;;10.70;8.07;;;;;;;;;;5013693;28;20038;-64
2022/05/18 10:43:32;;;;;;;16.05;8.45;;;;;;;;;;5013235;28;20046;-64
2022/05/18 10:46:01;;;;;;;14.50;9.60;;;;;;;;;;5013474;28;20050;-64
2022/05/18 10:48:28;;;;;;;15.50;10.52;;;;;;;;;;5012902;28;20075;-64
2022/05/18 10:51:06;;;;;;;15.02;10.95;;;;;;;;;;5014859;28;20084;-64
2022/05/18 10:53:35;;;;;;;18.98;11.25;;;;;;;;;;5024731;28;20041;-64
2022/05/18 10:56:05;;;;;;;17.63;11.73;;;;;;;;;;5012569;28;20053;-64
2022/05/18 10:58:36;;;;;;;13.38;9.55;;;;;;;;;;5013172;28;20086;-64
2022/05/18 11:01:04;;;;;;;20.83;11.70;;;;;;;;;;5013333;28;20053;-64
2022/05/18 11:03:35;;;;;;;17.30;9.55;;;;;;;;;;5017147;28;20052;-64
2022/05/18 11:06:07;;;;;;;19.65;11.45;;;;;;;;;;5032946;28;20049;-64
2022/05/18 11:08:33;;;;;;;12.43;8.18;;;;;;;;;;5025444;28;20053;-64
2022/05/18 11:11:10;;;;;;;16.13;9.90;;;;;;;;;;5012222;28;20056;-63
2022/05/18 11:13:46;;;;;;;24.05;14.23;;;;;;;;;;5025715;28;20124;-64
2022/05/18 11:16:22;;;;;;;18.95;10.90;;;;;;;;;;5012358;28;20045;-64
2022/05/18 11:18:58;;;;;;;18.10;12.23;;;;;;;;;;5013002;28;20099;-64
2022/05/18 11:21:29;;;;;;;19.20;11.68;;;;;;;;;;5016482;28;20550;-64
2022/05/18 11:24:01;;;;;;;15.13;10.82;;;;;;;;;;5012319;28;20053;-64
2022/05/18 11:26:36;;;;;;;18.42;12.45;;;;;;;;;;5015556;28;20042;-64
2022/05/18 11:29:12;;;;;;;18.25;11.13;;;;;;;;;;5032508;28;20069;-64
2022/05/18 11:31:44;;;;;;;16.35;9.50;;;;;;;;;;5022206;28;20069;-64
2022/05/18 11:34:10;;;;;;;12.30;7.80;;;;;;;;;;5013520;28;20138;-64
2022/05/18 11:36:42;;;;;;;14.30;8.68;;;;;;;;;;5032532;28;20057;-64
2022/05/18 11:39:15;;;;;;;13.77;8.05;;;;;;;;;;5031705;28;20053;-64
2022/05/18 11:41:43;;;;;;;15.98;8.63;;;;;;;;;;5031916;28;20048;-64
2022/05/18 11:44:09;;;;;;;15.50;10.30;;;;;;;;;;5012870;28;20049;-64
2022/05/18 11:46:50;;;;;;;18.45;11.30;;;;;;;;;;5012439;28;20048;-64
2022/05/18 11:49:20;;;;;;;19.92;10.65;;;;;;;;;;5012543;28;20053;-64
2022/05/18 11:51:47;;;;;;;16.05;10.25;;;;;;;;;;5011811;28;20056;-64
2022/05/18 11:54:27;;;;;;;17.30;9.63;;;;;;;;;;5025607;28;20045;-64
2022/05/18 11:57:05;;;;;;;17.05;9.55;;;;;;;;;;5022024;28;20513;-64
2022/05/18 11:59:45;;;;;;;19.27;10.05;;;;;;;;;;5014185;28;20516;-64
2022/05/18 12:02:15;;;;;;;20.95;11.48;;;;;;;;;;5015168;28;20057;-64
2022/05/18 12:04:42;;;;;;;19.75;13.07;;;;;;;;;;5025788;28;20485;-64
2022/05/18 12:07:14;;;;;;;26.92;16.27;;;;;;;;;;5026601;28;20045;-64
2022/05/18 12:09:45;;;;;;;26.27;16.35;;;;;;;;;;5016678;28;20405;-64
2022/05/18 12:12:22;;;;;;;20.58;14.80;;;;;;;;;;5010955;28;20038;-64
2022/05/18 12:15:01;;;;;;;24.30;18.02;;;;;;;;;;5011348;28;20140;-63
2022/05/18 12:17:43;;;;;;;29.88;17.77;;;;;;;;;;5010486;28;20042;-63
2022/05/18 12:20:13;;;;;;;25.80;17.77;;;;;;;;;;5010691;28;20049;-64
2022/05/18 12:22:41;;;;;;;25.42;17.58;;;;;;;;;;5011412;28;20046;-64
2022/05/18 12:25:09;;;;;;;26.63;18.23;;;;;;;;;;5011710;28;20042;-64
2022/05/18 12:27:35;;;;;;;26.25;15.88;;;;;;;;;;5010923;28;20065;-64
2022/05/18 12:30:02;;;;;;;23.08;14.50;;;;;;;;;;5010116;28;20475;-64
2022/05/18 12:32:29;;;;;;;21.02;14.57;;;;;;;;;;5009894;28;20422;-64
2022/05/18 12:34:56;;;;;;;25.77;15.40;;;;;;;;;;5010138;28;20061;-64
2022/05/18 12:37:30;;;;;;;26.13;17.17;;;;;;;;;;5009800;28;20042;-64
2022/05/18 12:40:07;;;;;;;28.92;19.75;;;;;;;;;;5010415;28;20121;-64
2022/05/18 12:42:35;;;;;;;29.02;18.95;;;;;;;;;;5010967;28;20042;-64
2022/05/18 12:45:03;;;;;;;27.10;18.75;;;;;;;;;;5011313;28;20393;-64
2022/05/18 12:47:39;;;;;;;28.20;19.05;;;;;;;;;;5011575;28;20050;-64
2022/05/18 12:50:13;;;;;;;30.30;18.13;;;;;;;;;;5011928;28;20095;-64
2022/05/18 12:52:44;;;;;;;26.67;19.55;;;;;;;;;;5016286;28;20046;-64
2022/05/18 12:55:10;;;;;;;31.45;18.92;;;;;;;;;;5009908;28;20038;-64
2022/05/18 12:57:48;;;;;;;27.95;17.50;;;;;;;;;;5011123;28;20049;-64
2022/05/18 13:00:24;;;;;;;27.80;18.23;;;;;;;;;;5010097;28;20523;-64
2022/05/18 13:02:55;;;;;;;29.25;18.10;;;;;;;;;;5010534;28;20405;-64
2022/05/18 13:05:31;;;;;;;28.08;16.77;;;;;;;;;;5005199;28;20041;-64
2022/05/18 13:08:16;;;;;;;29.92;17.48;;;;;;;;;;5009638;28;20053;-64
2022/05/18 13:11:02;;;;;;;26.33;16.48;;;;;;;;;;5009471;28;20054;-64
2022/05/18 13:13:28;;;;;;;27.08;17.02;;;;;;;;;;5010376;28;20046;-64
2022/05/18 13:15:56;;;;;;;27.60;16.23;;;;;;;;;;4993282;28;20100;-64
2022/05/18 13:18:33;;;;;;;27.02;17.13;;;;;;;;;;5016940;28;20050;-63
2022/05/18 13:21:05;;;;;;;26.88;16.35;;;;;;;;;;5014258;28;20124;-64
2022/05/18 13:23:31;;;;;;;27.37;16.57;;;;;;;;;;5013302;28;20038;-63
2022/05/18 13:26:12;;;;;;;24.27;16.67;;;;;;;;;;5013869;28;20388;-64
2022/05/18 13:28:39;;;;;;;26.63;16.35;;;;;;;;;;5017102;28;20046;-64
2022/05/18 13:31:06;;;;;;;29.95;16.90;;;;;;;;;;5015582;28;20528;-63
2022/05/18 13:33:38;;;;;;;29.05;16.08;;;;;;;;;;5013043;28;20145;-64
2022/05/18 13:36:05;;;;;;;24.77;15.27;;;;;;;;;;5015161;28;20041;-64
2022/05/18 13:38:32;;;;;;;28.60;15.77;;;;;;;;;;5012558;28;20383;-64
2022/05/18 13:41:00;;;;;;;25.98;15.63;;;;;;;;;;5013863;28;20137;-62
2022/05/18 13:43:29;;;;;;;19.88;12.90;;;;;;;;;;5016117;28;20499;-63
2022/05/18 13:45:57;;;;;;;24.70;14.50;;;;;;;;;;5013849;28;20081;-64
2022/05/18 13:48:24;;;;;;;27.77;15.02;;;;;;;;;;5015893;28;20029;-63
2022/05/18 13:50:52;;;;;;;25.95;13.85;;;;;;;;;;5016583;28;20041;-64
2022/05/18 13:53:22;;;;;;;24.83;14.35;;;;;;;;;;5016373;28;20038;-63
2022/05/18 13:55:49;;;;;;;24.85;14.43;;;;;;;;;;5013516;28;20073;-64
2022/05/18 13:58:20;;;;;;;24.15;12.85;;;;;;;;;;5013177;28;20042;-64
2022/05/18 14:00:49;;;;;;;24.58;14.00;;;;;;;;;;5014568;28;20504;-64
2022/05/18 14:03:18;;;;;;;22.90;12.98;;;;;;;;;;5013606;28;20042;-64
2022/05/18 14:05:44;;;;;;;23.02;13.48;;;;;;;;;;5012581;28;20085;-64
2022/05/18 14:08:26;;;;;;;22.55;13.18;;;;;;;;;;5013860;28;20103;-64
2022/05/18 14:10:55;;;;;;;21.73;12.30;;;;;;;;;;5013221;28;20053;-64
2022/05/18 14:13:22;;;;;;;20.85;12.30;;;;;;;;;;5012663;28;20412;-64
2022/05/18 14:15:50;;;;;;;21.67;13.02;;;;;;;;;;5012711;28;20049;-64
2022/05/18 14:18:19;;;;;;;26.52;13.02;;;;;;;;;;5012951;28;20100;-64
2022/05/18 14:20:48;;;;;;;23.70;13.82;;;;;;;;;;4995001;28;20116;-64
2022/05/18 14:23:19;;;;;;;22.83;14.00;;;;;;;;;;5014125;28;20045;-64
2022/05/18 14:25:46;;;;;;;22.17;14.98;;;;;;;;;;5014316;28;20128;-64
2022/05/18 14:28:24;;;;;;;26.15;15.07;;;;;;;;;;5004866;28;20050;-64
2022/05/18 14:30:51;;;;;;;24.23;13.98;;;;;;;;;;5013584;28;20038;-62
2022/05/18 14:33:23;;;;;;;25.45;14.48;;;;;;;;;;5012596;28;20057;-64
2022/05/18 14:35:51;;;;;;;23.42;13.80;;;;;;;;;;5010809;28;20041;-63
2022/05/18 14:38:23;;;;;;;21.73;12.90;;;;;;;;;;5016315;28;20053;-63
2022/05/18 14:40:49;;;;;;;22.50;13.50;;;;;;;;;;5017232;28;20046;-64
2022/05/18 14:43:16;;;;;;;24.67;13.15;;;;;;;;;;4983728;28;20857;-62
2022/05/18 14:45:45;;;;;;;97.57;16.38;;;;;;;;;;5011271;28;20050;-61
2022/05/18 14:48:27;;;;;;;18.85;12.10;;;;;;;;;;5002761;28;20053;-61